Airfield :







YOU CAN JOIN US ON...

 
LOGIN :

Register | Disclaimer

   EN    FR    IT 

 









Legend :    VFR   Marginal VFR   IFR   Intensive IFR   Very Intensive IFR
Visi :
Ceiling :
>= 8 km
>= 3000ft
5 to 8 km
1000 to 3000 ft
1500m to 5 km
500 to 1000 ft
800 to 1500m
200 to 500 ft
< 800m
< 200 ft
Symbols :   Thunderstorms  Fog  Heavy snow  Heavy precipitations  Wind > 20 kt







- Airport Elevation : 545 ft


KLCI - Laconia Municipal

CURRENT METAR :
  • 241356Z AUTO 07011KT 10SM OVC031 09/01 A3062 RMK AO2 SLP389 T00890006 PWINO

EXPIRED METARs :
  • 241346Z AUTO 06010KT 10SM OVC031 09/01 A3062 RMK AO2 PWINO
  • 241256Z AUTO 08017KT 10SM OVC029 09/01 A3059 RMK AO2 SLP382 T00940006 PWINO
  • 241156Z AUTO 07016G20KT 10SM OVC027 08/02 A3057 RMK AO2 SLP373 T00830022 10106 20067 51024 PWINO

TAF N/A
KZBW FIR / North America



MET'MAP, your aeronautical weather chart ! - Copyright ORBIFLY December 2007 - Disclaimer

ORBIFLY MET'MAP TEAM :

Programming & Development : Alexandra Zaïnal
Concept & Development : Baudouin d'Aumeries
Co-Development & Prog : Marc-Olivier Méhu
Technical & hardware support : Manuel Goepfert

Contact : metmap@orbifly.com




SOURCES & CREDITS :

   NOAA